sensor_id;sensor_type;location;lat;lon;timestamp;pressure;altitude;pressure_sealevel;temperature;humidity
56668;BME280;42542;48.360;10.958;2022-12-20T00:00:13;96815.09;;;-0.41;100.00
56668;BME280;42542;48.360;10.958;2022-12-20T00:03:16;96808.06;;;-0.40;100.00
56668;BME280;42542;48.360;10.958;2022-12-20T00:06:18;96801.91;;;-0.39;100.00
56668;BME280;42542;48.360;10.958;2022-12-20T00:09:20;96794.34;;;-0.45;100.00
56668;BME280;42542;48.360;10.958;2022-12-20T00:12:22;96801.91;;;-0.39;100.00
56668;BME280;42542;48.360;10.958;2022-12-20T00:15:24;96800.97;;;-0.38;100.00
56668;BME280;42542;48.360;10.958;2022-12-20T00:18:25;96798.34;;;-0.38;100.00
56668;BME280;42542;48.360;10.958;2022-12-20T00:21:29;96793.00;;;-0.36;100.00
56668;BME280;42542;48.360;10.958;2022-12-20T00:24:31;96785.94;;;-0.36;100.00
56668;BME280;42542;48.360;10.958;2022-12-20T00:27:33;96781.56;;;-0.35;100.00
56668;BME280;42542;48.360;10.958;2022-12-20T00:30:34;96787.66;;;-0.35;100.00
56668;BME280;42542;48.360;10.958;2022-12-20T00:33:39;96780.63;;;-0.34;100.00
56668;BME280;42542;48.360;10.958;2022-12-20T00:36:42;96788.44;;;-0.33;100.00
56668;BME280;42542;48.360;10.958;2022-12-20T00:39:44;96792.75;;;-0.32;100.00
56668;BME280;42542;48.360;10.958;2022-12-20T00:42:45;96791.06;;;-0.33;100.00
56668;BME280;42542;48.360;10.958;2022-12-20T00:45:47;96772.16;;;-0.40;100.00
56668;BME280;42542;48.360;10.958;2022-12-20T00:48:49;96790.91;;;-0.30;100.00
56668;BME280;42542;48.360;10.958;2022-12-20T00:51:51;96798.69;;;-0.28;100.00
56668;BME280;42542;48.360;10.958;2022-12-20T00:54:52;96802.25;;;-0.29;100.00
56668;BME280;42542;48.360;10.958;2022-12-20T00:57:54;96806.47;;;-0.27;100.00
56668;BME280;42542;48.360;10.958;2022-12-20T01:00:56;96804.72;;;-0.26;100.00
56668;BME280;42542;48.360;10.958;2022-12-20T01:03:58;96799.53;;;-0.28;100.00
56668;BME280;42542;48.360;10.958;2022-12-20T01:07:01;96791.75;;;-0.29;100.00
56668;BME280;42542;48.360;10.958;2022-12-20T01:10:03;96791.66;;;-0.28;100.00
56668;BME280;42542;48.360;10.958;2022-12-20T01:13:04;96787.25;;;-0.27;100.00
56668;BME280;42542;48.360;10.958;2022-12-20T01:16:08;96788.09;;;-0.27;100.00
56668;BME280;42542;48.360;10.958;2022-12-20T01:19:13;96788.09;;;-0.27;100.00
56668;BME280;42542;48.360;10.958;2022-12-20T01:22:14;96783.75;;;-0.28;100.00
56668;BME280;42542;48.360;10.958;2022-12-20T01:25:16;96796.91;;;-0.28;100.00
56668;BME280;42542;48.360;10.958;2022-12-20T01:28:17;96795.13;;;-0.27;100.00
56668;BME280;42542;48.360;10.958;2022-12-20T01:31:20;96804.78;;;-0.28;100.00
56668;BME280;42542;48.360;10.958;2022-12-20T01:34:22;96796.06;;;-0.28;100.00
56668;BME280;42542;48.360;10.958;2022-12-20T01:37:23;96789.13;;;-0.29;100.00
56668;BME280;42542;48.360;10.958;2022-12-20T01:40:25;96789.22;;;-0.31;100.00
56668;BME280;42542;48.360;10.958;2022-12-20T01:43:50;96791.84;;;-0.31;100.00
56668;BME280;42542;48.360;10.958;2022-12-20T01:46:53;96776.22;;;-0.34;100.00
56668;BME280;42542;48.360;10.958;2022-12-20T01:49:57;96778.84;;;-0.34;100.00
56668;BME280;42542;48.360;10.958;2022-12-20T01:53:00;96775.38;;;-0.34;100.00
56668;BME280;42542;48.360;10.958;2022-12-20T01:56:05;96782.41;;;-0.35;100.00
56668;BME280;42542;48.360;10.958;2022-12-20T01:59:08;96775.38;;;-0.34;100.00
56668;BME280;42542;48.360;10.958;2022-12-20T02:02:11;96770.38;;;-0.39;100.00
56668;BME280;42542;48.360;10.958;2022-12-20T02:05:15;96775.38;;;-0.34;100.00
56668;BME280;42542;48.360;10.958;2022-12-20T02:08:18;96772.75;;;-0.34;100.00
56668;BME280;42542;48.360;10.958;2022-12-20T02:11:53;96777.16;;;-0.35;100.00
56668;BME280;42542;48.360;10.958;2022-12-20T02:15:04;96770.97;;;-0.34;100.00
56668;BME280;42542;48.360;10.958;2022-12-20T02:18:21;96770.13;;;-0.34;100.00
56668;BME280;42542;48.360;10.958;2022-12-20T02:21:35;96764.94;;;-0.36;100.00
56668;BME280;42542;48.360;10.958;2022-12-20T02:31:13;96767.50;;;-0.34;100.00
56668;BME280;42542;48.360;10.958;2022-12-20T02:34:21;96764.88;;;-0.34;100.00
56668;BME280;42542;48.360;10.958;2022-12-20T02:37:25;96751.81;;;-0.36;100.00
56668;BME280;42542;48.360;10.958;2022-12-20T02:40:31;96745.63;;;-0.35;100.00
56668;BME280;42542;48.360;10.958;2022-12-20T02:43:38;96749.19;;;-0.36;100.00
56668;BME280;42542;48.360;10.958;2022-12-20T02:47:02;96750.88;;;-0.35;100.00
56668;BME280;42542;48.360;10.958;2022-12-20T02:50:06;96743.00;;;-0.35;100.00
56668;BME280;42542;48.360;10.958;2022-12-20T02:53:11;96731.75;;;-0.37;100.00
56668;BME280;42542;48.360;10.958;2022-12-20T02:59:31;96725.66;;;-0.37;100.00
56668;BME280;42542;48.360;10.958;2022-12-20T03:02:38;96734.19;;;-0.34;100.00
56668;BME280;42542;48.360;10.958;2022-12-20T03:05:59;96736.81;;;-0.34;100.00
56668;BME280;42542;48.360;10.958;2022-12-20T03:09:01;96724.53;;;-0.33;100.00
56668;BME280;42542;48.360;10.958;2022-12-20T03:12:07;96717.50;;;-0.33;100.00
56668;BME280;42542;48.360;10.958;2022-12-20T03:15:11;96728.88;;;-0.32;100.00
56668;BME280;42542;48.360;10.958;2022-12-20T03:18:13;96727.94;;;-0.31;100.00
56668;BME280;42542;48.360;10.958;2022-12-20T03:21:14;96718.22;;;-0.29;100.00
56668;BME280;42542;48.360;10.958;2022-12-20T03:24:16;96708.88;;;-0.35;100.00
56668;BME280;42542;48.360;10.958;2022-12-20T03:27:18;96712.00;;;-0.28;100.00
56668;BME280;42542;48.360;10.958;2022-12-20T03:30:20;96716.31;;;-0.27;100.00
56668;BME280;42542;48.360;10.958;2022-12-20T03:33:22;96713.63;;;-0.26;100.00
56668;BME280;42542;48.360;10.958;2022-12-20T03:36:24;96731.16;;;-0.26;100.00
56668;BME280;42542;48.360;10.958;2022-12-20T03:39:31;96736.34;;;-0.25;100.00
56668;BME280;42542;48.360;10.958;2022-12-20T03:42:33;96727.69;;;-0.27;100.00
56668;BME280;42542;48.360;10.958;2022-12-20T03:45:35;96727.44;;;-0.22;100.00
56668;BME280;42542;48.360;10.958;2022-12-20T03:48:37;96720.50;;;-0.23;100.00
56668;BME280;42542;48.360;10.958;2022-12-20T03:51:39;96720.56;;;-0.25;100.00
56668;BME280;42542;48.360;10.958;2022-12-20T03:54:41;96720.66;;;-0.26;100.00
56668;BME280;42542;48.360;10.958;2022-12-20T03:57:47;96724.13;;;-0.26;100.00
56668;BME280;42542;48.360;10.958;2022-12-20T04:01:24;96719.81;;;-0.27;100.00
56668;BME280;42542;48.360;10.958;2022-12-20T04:04:28;96715.47;;;-0.28;100.00
56668;BME280;42542;48.360;10.958;2022-12-20T04:07:30;96712.97;;;-0.29;100.00
56668;BME280;42542;48.360;10.958;2022-12-20T04:10:32;96718.22;;;-0.29;100.00
56668;BME280;42542;48.360;10.958;2022-12-20T04:13:54;96713.03;;;-0.31;100.00
56668;BME280;42542;48.360;10.958;2022-12-20T04:16:56;96703.44;;;-0.32;100.00
56668;BME280;42542;48.360;10.958;2022-12-20T04:19:57;96699.22;;;-0.34;100.00
56668;BME280;42542;48.360;10.958;2022-12-20T04:23:00;96689.56;;;-0.34;100.00
56668;BME280;42542;48.360;10.958;2022-12-20T04:26:02;96689.56;;;-0.34;100.00
56668;BME280;42542;48.360;10.958;2022-12-20T04:29:06;96686.06;;;-0.34;100.00
56668;BME280;42542;48.360;10.958;2022-12-20T04:32:08;96673.88;;;-0.35;100.00
56668;BME280;42542;48.360;10.958;2022-12-20T04:35:10;96653.28;;;-0.43;100.00
56668;BME280;42542;48.360;10.958;2022-12-20T04:38:15;96656.44;;;-0.36;100.00
56668;BME280;42542;48.360;10.958;2022-12-20T04:41:18;96657.38;;;-0.37;100.00
56668;BME280;42542;48.360;10.958;2022-12-20T04:44:28;96649.50;;;-0.37;100.00
56668;BME280;42542;48.360;10.958;2022-12-20T04:47:30;96656.53;;;-0.38;100.00
56668;BME280;42542;48.360;10.958;2022-12-20T04:50:32;96654.75;;;-0.37;100.00
56668;BME280;42542;48.360;10.958;2022-12-20T04:53:34;96653.97;;;-0.40;100.00
56668;BME280;42542;48.360;10.958;2022-12-20T04:57:13;96657.44;;;-0.39;100.00
56668;BME280;42542;48.360;10.958;2022-12-20T05:00:15;96651.44;;;-0.41;100.00
56668;BME280;42542;48.360;10.958;2022-12-20T05:03:22;96649.84;;;-0.44;100.00
56668;BME280;42542;48.360;10.958;2022-12-20T05:06:24;96642.97;;;-0.46;100.00
56668;BME280;42542;48.360;10.958;2022-12-20T05:09:26;96641.34;;;-0.49;100.00
56668;BME280;42542;48.360;10.958;2022-12-20T05:12:28;96639.75;;;-0.51;100.00
56668;BME280;42542;48.360;10.958;2022-12-20T05:15:33;96627.63;;;-0.54;100.00
56668;BME280;42542;48.360;10.958;2022-12-20T05:18:36;96643.53;;;-0.57;100.00
56668;BME280;42542;48.360;10.958;2022-12-20T05:21:43;96637.53;;;-0.59;100.00
56668;BME280;42542;48.360;10.958;2022-12-20T05:25:05;96641.19;;;-0.61;100.00
56668;BME280;42542;48.360;10.958;2022-12-20T05:28:28;96647.44;;;-0.64;100.00
56668;BME280;42542;48.360;10.958;2022-12-20T05:31:31;96644.81;;;-0.64;100.00
56668;BME280;42542;48.360;10.958;2022-12-20T05:34:33;96638.81;;;-0.66;100.00
56668;BME280;42542;48.360;10.958;2022-12-20T05:37:35;96637.03;;;-0.65;100.00
56668;BME280;42542;48.360;10.958;2022-12-20T05:40:47;96643.13;;;-0.65;100.00
56668;BME280;42542;48.360;10.958;2022-12-20T05:43:50;96633.56;;;-0.66;100.00
56668;BME280;42542;48.360;10.958;2022-12-20T05:46:52;96638.81;;;-0.66;100.00
56668;BME280;42542;48.360;10.958;2022-12-20T05:50:00;96636.19;;;-0.66;100.00
56668;BME280;42542;48.360;10.958;2022-12-20T05:53:13;96637.03;;;-0.65;100.00
56668;BME280;42542;48.360;10.958;2022-12-20T05:56:20;96643.13;;;-0.65;100.00
56668;BME280;42542;48.360;10.958;2022-12-20T05:59:21;96631.78;;;-0.65;100.00
56668;BME280;42542;48.360;10.958;2022-12-20T06:02:23;96631.69;;;-0.64;100.00
56668;BME280;42542;48.360;10.958;2022-12-20T06:05:32;96616.97;;;-0.66;100.00
56668;BME280;42542;48.360;10.958;2022-12-20T06:08:34;96633.56;;;-0.66;100.00
56668;BME280;42542;48.360;10.958;2022-12-20T06:11:39;96631.00;;;-0.67;100.00
56668;BME280;42542;48.360;10.958;2022-12-20T06:14:44;96630.00;;;-0.65;100.00
56668;BME280;42542;48.360;10.958;2022-12-20T06:17:46;96622.97;;;-0.64;100.00
56668;BME280;42542;48.360;10.958;2022-12-20T06:20:50;96623.81;;;-0.64;100.00
56668;BME280;42542;48.360;10.958;2022-12-20T06:23:55;96625.44;;;-0.61;100.00
56668;BME280;42542;48.360;10.958;2022-12-20T06:26:57;96620.88;;;-0.58;100.00
56668;BME280;42542;48.360;10.958;2022-12-20T06:30:00;96616.34;;;-0.56;100.00
56668;BME280;42542;48.360;10.958;2022-12-20T06:33:11;96613.00;;;-0.58;100.00
56668;BME280;42542;48.360;10.958;2022-12-20T06:36:12;96611.03;;;-0.54;100.00
56668;BME280;42542;48.360;10.958;2022-12-20T06:39:15;96608.25;;;-0.51;100.00
56668;BME280;42542;48.360;10.958;2022-12-20T06:42:25;96607.41;;;-0.52;100.00
56668;BME280;42542;48.360;10.958;2022-12-20T06:45:27;96614.44;;;-0.52;100.00
56668;BME280;42542;48.360;10.958;2022-12-20T06:48:29;96622.22;;;-0.51;100.00
56668;BME280;42542;48.360;10.958;2022-12-20T06:51:31;96614.22;;;-0.49;100.00
56668;BME280;42542;48.360;10.958;2022-12-20T06:54:33;96602.81;;;-0.48;100.00
56668;BME280;42542;48.360;10.958;2022-12-20T06:57:35;96594.94;;;-0.48;100.00
56668;BME280;42542;48.360;10.958;2022-12-20T07:00:37;96587.81;;;-0.46;100.00
56668;BME280;42542;48.360;10.958;2022-12-20T07:03:39;96584.50;;;-0.50;100.00
56668;BME280;42542;48.360;10.958;2022-12-20T07:06:41;96590.25;;;-0.43;100.00
56668;BME280;42542;48.360;10.958;2022-12-20T07:09:42;96584.94;;;-0.42;100.00
56668;BME280;42542;48.360;10.958;2022-12-20T07:12:44;96590.94;;;-0.40;100.00
56668;BME280;42542;48.360;10.958;2022-12-20T07:15:57;96592.56;;;-0.37;100.00
56668;BME280;42542;48.360;10.958;2022-12-20T07:18:59;96588.97;;;-0.36;100.00
56668;BME280;42542;48.360;10.958;2022-12-20T07:22:01;96581.03;;;-0.34;100.00
56668;BME280;42542;48.360;10.958;2022-12-20T07:25:03;96581.78;;;-0.32;100.00
56668;BME280;42542;48.360;10.958;2022-12-20T07:28:05;96586.09;;;-0.31;100.00
56668;BME280;42542;48.360;10.958;2022-12-20T07:31:07;96587.72;;;-0.29;100.00
56668;BME280;42542;48.360;10.958;2022-12-20T07:34:09;96590.09;;;-0.24;100.00
56668;BME280;42542;48.360;10.958;2022-12-20T07:37:10;96599.59;;;-0.22;100.00
56668;BME280;42542;48.360;10.958;2022-12-20T07:40:12;96595.06;;;-0.20;100.00
56668;BME280;42542;48.360;10.958;2022-12-20T07:43:15;96595.91;;;-0.19;100.00
56668;BME280;42542;48.360;10.958;2022-12-20T07:46:17;96597.53;;;-0.17;100.00
56668;BME280;42542;48.360;10.958;2022-12-20T07:49:19;96599.97;;;-0.14;100.00
56668;BME280;42542;48.360;10.958;2022-12-20T07:52:23;96588.44;;;-0.11;100.00
56668;BME280;42542;48.360;10.958;2022-12-20T07:55:29;96608.34;;;-0.07;100.00
56668;BME280;42542;48.360;10.958;2022-12-20T07:58:32;96607.31;;;-0.05;100.00
56668;BME280;42542;48.360;10.958;2022-12-20T08:01:35;96598.88;;;-0.10;100.00
56668;BME280;42542;48.360;10.958;2022-12-20T08:04:37;96606.03;;;0.03;100.00
56668;BME280;42542;48.360;10.958;2022-12-20T08:07:40;96600.63;;;0.06;100.00
56668;BME280;42542;48.360;10.958;2022-12-20T08:10:43;96610.19;;;0.07;100.00
56668;BME280;42542;48.360;10.958;2022-12-20T08:13:45;96602.97;;;0.10;100.00
56668;BME280;42542;48.360;10.958;2022-12-20T08:16:52;96596.63;;;0.14;100.00
56668;BME280;42542;48.360;10.958;2022-12-20T08:19:53;96600.66;;;0.20;100.00
56668;BME280;42542;48.360;10.958;2022-12-20T08:22:57;96602.34;;;0.21;100.00
56668;BME280;42542;48.360;10.958;2022-12-20T08:26:00;96609.97;;;0.25;100.00
56668;BME280;42542;48.360;10.958;2022-12-20T08:29:02;96616.84;;;0.28;100.00
56668;BME280;42542;48.360;10.958;2022-12-20T08:32:03;96616.56;;;0.32;100.00
56668;BME280;42542;48.360;10.958;2022-12-20T08:35:05;96601.34;;;0.37;100.00
56668;BME280;42542;48.360;10.958;2022-12-20T08:38:07;96616.03;;;0.42;100.00
56668;BME280;42542;48.360;10.958;2022-12-20T08:41:11;96619.31;;;0.45;100.00
56668;BME280;42542;48.360;10.958;2022-12-20T08:44:13;96606.16;;;0.45;100.00
56668;BME280;42542;48.360;10.958;2022-12-20T08:47:15;96593.28;;;0.41;100.00
56668;BME280;42542;48.360;10.958;2022-12-20T08:50:16;96597.16;;;0.49;100.00
56668;BME280;42542;48.360;10.958;2022-12-20T08:53:19;96580.69;;;0.46;100.00
56668;BME280;42542;48.360;10.958;2022-12-20T08:56:21;96587.97;;;0.56;100.00
56668;BME280;42542;48.360;10.958;2022-12-20T08:59:23;96590.31;;;0.61;100.00
56668;BME280;42542;48.360;10.958;2022-12-20T09:02:25;96581.31;;;0.65;100.00
56668;BME280;42542;48.360;10.958;2022-12-20T09:05:27;96575.94;;;0.66;100.00
56668;BME280;42542;48.360;10.958;2022-12-20T09:08:28;96582.50;;;0.73;100.00
56668;BME280;42542;48.360;10.958;2022-12-20T09:11:30;96571.81;;;0.76;100.00
56668;BME280;42542;48.360;10.958;2022-12-20T09:14:32;96579.50;;;0.79;100.00
56668;BME280;42542;48.360;10.958;2022-12-20T09:17:33;96586.19;;;0.85;100.00
56668;BME280;42542;48.360;10.958;2022-12-20T09:20:35;96578.94;;;0.89;100.00
56668;BME280;42542;48.360;10.958;2022-12-20T09:23:42;96560.63;;;0.87;100.00
56668;BME280;42542;48.360;10.958;2022-12-20T09:26:43;96562.22;;;0.90;100.00
56668;BME280;42542;48.360;10.958;2022-12-20T09:29:46;96573.13;;;0.98;100.00
56668;BME280;42542;48.360;10.958;2022-12-20T09:32:47;96579.63;;;1.06;100.00
56668;BME280;42542;48.360;10.958;2022-12-20T09:35:49;96584.78;;;1.08;100.00
56668;BME280;42542;48.360;10.958;2022-12-20T09:38:51;96580.16;;;1.11;100.00
56668;BME280;42542;48.360;10.958;2022-12-20T09:41:52;96575.44;;;1.16;100.00
56668;BME280;42542;48.360;10.958;2022-12-20T09:45:05;96581.28;;;1.22;100.00
56668;BME280;42542;48.360;10.958;2022-12-20T09:48:19;96585.50;;;1.24;100.00
56668;BME280;42542;48.360;10.958;2022-12-20T10:01:48;96542.03;;;1.31;100.00
56668;BME280;42542;48.360;10.958;2022-12-20T10:04:52;96552.47;;;1.33;100.00
56668;BME280;42542;48.360;10.958;2022-12-20T10:08:02;96522.66;;;1.32;100.00
56668;BME280;42542;48.360;10.958;2022-12-20T10:21:16;96511.34;;;1.44;100.00
56668;BME280;42542;48.360;10.958;2022-12-20T10:24:28;96516.31;;;1.49;100.00
56668;BME280;42542;48.360;10.958;2022-12-20T10:27:30;96521.28;;;1.53;100.00
56668;BME280;42542;48.360;10.958;2022-12-20T10:30:36;96517.63;;;1.56;100.00
56668;BME280;42542;48.360;10.958;2022-12-20T10:33:39;96512.97;;;1.60;100.00
56668;BME280;42542;48.360;10.958;2022-12-20T10:36:40;96506.56;;;1.64;100.00
56668;BME280;42542;48.360;10.958;2022-12-20T10:39:46;96505.63;;;1.65;100.00
56668;BME280;42542;48.360;10.958;2022-12-20T10:42:48;96505.22;;;1.71;100.00
56668;BME280;42542;48.360;10.958;2022-12-20T10:46:02;96498.06;;;1.73;100.00
56668;BME280;42542;48.360;10.958;2022-12-20T10:52:31;96479.63;;;1.73;100.00
56668;BME280;42542;48.360;10.958;2022-12-20T10:55:39;96473.09;;;1.78;100.00
56668;BME280;42542;48.360;10.958;2022-12-20T10:58:41;96470.38;;;1.80;100.00
56668;BME280;42542;48.360;10.958;2022-12-20T11:01:44;96475.31;;;1.84;100.00
56668;BME280;42542;48.360;10.958;2022-12-20T11:05:20;96467.94;;;1.89;100.00
56668;BME280;42542;48.360;10.958;2022-12-20T11:08:22;96458.91;;;1.93;100.00
56668;BME280;42542;48.360;10.958;2022-12-20T11:12:05;96450.66;;;1.98;100.00
56668;BME280;42542;48.360;10.958;2022-12-20T11:15:15;96446.97;;;2.01;100.00
56668;BME280;42542;48.360;10.958;2022-12-20T11:22:21;96444.44;;;2.12;100.00
56668;BME280;42542;48.360;10.958;2022-12-20T11:35:44;96416.59;;;2.20;100.00
56668;BME280;42542;48.360;10.958;2022-12-20T11:38:57;96401.72;;;2.19;100.00
56668;BME280;42542;48.360;10.958;2022-12-20T11:42:12;96391.09;;;2.21;100.00
56668;BME280;42542;48.360;10.958;2022-12-20T11:45:25;96391.94;;;2.21;100.00
56668;BME280;42542;48.360;10.958;2022-12-20T11:48:56;96384.13;;;2.20;100.00
56668;BME280;42542;48.360;10.958;2022-12-20T11:52:27;96375.34;;;2.19;100.00
56668;BME280;42542;48.360;10.958;2022-12-20T11:55:32;96383.38;;;2.18;100.00
56668;BME280;42542;48.360;10.958;2022-12-20T11:59:18;96382.44;;;2.19;100.00
56668;BME280;42542;48.360;10.958;2022-12-20T12:02:12;96383.28;;;2.19;100.00
56668;BME280;42542;48.360;10.958;2022-12-20T12:05:23;96380.72;;;2.18;100.00
56668;BME280;42542;48.360;10.958;2022-12-20T12:08:33;96373.66;;;2.18;100.00
56668;BME280;42542;48.360;10.958;2022-12-20T12:11:43;96360.50;;;2.18;100.00
56668;BME280;42542;48.360;10.958;2022-12-20T12:15:33;96357.84;;;2.18;100.00
56668;BME280;42542;48.360;10.958;2022-12-20T12:18:38;96346.47;;;2.18;100.00
56668;BME280;42542;48.360;10.958;2022-12-20T12:21:48;96354.16;;;2.21;100.00
56668;BME280;42542;48.360;10.958;2022-12-20T12:24:56;96344.56;;;2.20;100.00
56668;BME280;42542;48.360;10.958;2022-12-20T12:27:58;96350.44;;;2.23;100.00
56668;BME280;42542;48.360;10.958;2022-12-20T12:31:07;96352.28;;;2.23;100.00
56668;BME280;42542;48.360;10.958;2022-12-20T12:37:53;96359.19;;;2.24;100.00
56668;BME280;42542;48.360;10.958;2022-12-20T12:44:39;96345.81;;;2.27;100.00
56668;BME280;42542;48.360;10.958;2022-12-20T12:47:46;96337.06;;;2.26;100.00
56668;BME280;42542;48.360;10.958;2022-12-20T12:50:52;96348.97;;;2.32;100.00
56668;BME280;42542;48.360;10.958;2022-12-20T12:54:23;96355.72;;;2.36;100.00
56668;BME280;42542;48.360;10.958;2022-12-20T12:57:25;96342.53;;;2.36;100.00
56668;BME280;42542;48.360;10.958;2022-12-20T13:06:58;96348.75;;;2.35;100.00
56668;BME280;42542;48.360;10.958;2022-12-20T13:10:04;96334.94;;;2.31;100.00
56668;BME280;42542;48.360;10.958;2022-12-20T13:13:26;96323.13;;;2.37;100.00
56668;BME280;42542;48.360;10.958;2022-12-20T13:16:27;96335.22;;;2.40;100.00
56668;BME280;42542;48.360;10.958;2022-12-20T13:19:54;96322.03;;;2.40;100.00
56668;BME280;42542;48.360;10.958;2022-12-20T13:23:13;96315.06;;;2.39;100.00
56668;BME280;42542;48.360;10.958;2022-12-20T13:26:53;96317.59;;;2.40;100.00
56668;BME280;42542;48.360;10.958;2022-12-20T13:33:14;96322.03;;;2.40;100.00
56668;BME280;42542;48.360;10.958;2022-12-20T13:36:34;96319.63;;;2.37;100.00
56668;BME280;42542;48.360;10.958;2022-12-20T13:39:36;96323.84;;;2.39;100.00
56668;BME280;42542;48.360;10.958;2022-12-20T13:42:39;96321.09;;;2.41;100.00
56668;BME280;42542;48.360;10.958;2022-12-20T13:48:52;96305.06;;;2.44;100.00
56668;BME280;42542;48.360;10.958;2022-12-20T13:55:37;96284.81;;;2.44;100.00
56668;BME280;42542;48.360;10.958;2022-12-20T13:58:41;96277.00;;;2.43;100.00
56668;BME280;42542;48.360;10.958;2022-12-20T14:01:49;96292.56;;;2.46;100.00
56668;BME280;42542;48.360;10.958;2022-12-20T14:04:58;96303.97;;;2.46;100.00
56668;BME280;42542;48.360;10.958;2022-12-20T14:08:04;96301.47;;;2.45;100.00
56668;BME280;42542;48.360;10.958;2022-12-20T14:11:13;96290.19;;;2.43;100.00
56668;BME280;42542;48.360;10.958;2022-12-20T14:14:15;96277.19;;;2.40;100.00
56668;BME280;42542;48.360;10.958;2022-12-20T14:17:26;96276.59;;;2.36;100.00
56668;BME280;42542;48.360;10.958;2022-12-20T14:20:30;96271.31;;;2.36;100.00
56668;BME280;42542;48.360;10.958;2022-12-20T14:23:40;96283.75;;;2.34;100.00
56668;BME280;42542;48.360;10.958;2022-12-20T14:26:44;96298.84;;;2.32;100.00
56668;BME280;42542;48.360;10.958;2022-12-20T14:29:48;96301.81;;;2.27;100.00
56668;BME280;42542;48.360;10.958;2022-12-20T14:32:50;96317.66;;;2.27;100.00
56668;BME280;42542;48.360;10.958;2022-12-20T14:35:52;96320.28;;;2.27;100.00
56668;BME280;42542;48.360;10.958;2022-12-20T14:38:53;96304.56;;;2.26;100.00
56668;BME280;42542;48.360;10.958;2022-12-20T14:45:03;96304.56;;;2.26;100.00
56668;BME280;42542;48.360;10.958;2022-12-20T14:48:14;96298.53;;;2.24;100.00
56668;BME280;42542;48.360;10.958;2022-12-20T14:51:19;96289.94;;;2.22;100.00
56668;BME280;42542;48.360;10.958;2022-12-20T14:54:26;96283.91;;;2.20;100.00
56668;BME280;42542;48.360;10.958;2022-12-20T14:57:51;96272.22;;;2.11;100.00
56668;BME280;42542;48.360;10.958;2022-12-20T15:01:19;96280.88;;;2.13;100.00
56668;BME280;42542;48.360;10.958;2022-12-20T15:07:30;96270.75;;;2.07;100.00
56668;BME280;42542;48.360;10.958;2022-12-20T15:10:32;96282.47;;;2.03;100.00
56668;BME280;42542;48.360;10.958;2022-12-20T15:16:45;96284.06;;;1.93;100.00
56668;BME280;42542;48.360;10.958;2022-12-20T15:19:48;96283.22;;;1.92;100.00
56668;BME280;42542;48.360;10.958;2022-12-20T15:22:50;96285.03;;;1.92;100.00
56668;BME280;42542;48.360;10.958;2022-12-20T15:25:52;96293.97;;;1.89;100.00
56668;BME280;42542;48.360;10.958;2022-12-20T15:28:54;96286.41;;;1.85;100.00
56668;BME280;42542;48.360;10.958;2022-12-20T15:32:04;96295.25;;;1.84;100.00
56668;BME280;42542;48.360;10.958;2022-12-20T15:35:12;96284.81;;;1.82;100.00
56668;BME280;42542;48.360;10.958;2022-12-20T15:38:17;96280.63;;;1.80;100.00
56668;BME280;42542;48.360;10.958;2022-12-20T15:41:35;96279.03;;;1.77;100.00
56668;BME280;42542;48.360;10.958;2022-12-20T15:44:37;96274.91;;;1.73;100.00
56668;BME280;42542;48.360;10.958;2022-12-20T15:47:39;96268.09;;;1.71;100.00
56668;BME280;42542;48.360;10.958;2022-12-20T15:50:48;96280.41;;;1.70;100.00
56668;BME280;42542;48.360;10.958;2022-12-20T15:53:50;96276.19;;;1.68;100.00
56668;BME280;42542;48.360;10.958;2022-12-20T15:56:53;96274.50;;;1.67;100.00
56668;BME280;42542;48.360;10.958;2022-12-20T15:59:54;96273.88;;;1.63;100.00
56668;BME280;42542;48.360;10.958;2022-12-20T16:03:16;96269.97;;;1.56;100.00
56668;BME280;42542;48.360;10.958;2022-12-20T16:06:19;96279.34;;;1.60;100.00
56668;BME280;42542;48.360;10.958;2022-12-20T16:09:21;96274.19;;;1.58;100.00
56668;BME280;42542;48.360;10.958;2022-12-20T16:12:28;96271.78;;;1.55;100.00
56668;BME280;42542;48.360;10.958;2022-12-20T16:15:32;96264.72;;;1.56;100.00
56668;BME280;42542;48.360;10.958;2022-12-20T16:18:34;96251.75;;;1.53;100.00
56668;BME280;42542;48.360;10.958;2022-12-20T16:21:46;96254.28;;;1.54;100.00
56668;BME280;42542;48.360;10.958;2022-12-20T16:24:48;96252.69;;;1.52;100.00
56668;BME280;42542;48.360;10.958;2022-12-20T16:27:50;96243.44;;;1.46;100.00
56668;BME280;42542;48.360;10.958;2022-12-20T16:30:52;96248.41;;;1.51;100.00
56668;BME280;42542;48.360;10.958;2022-12-20T16:33:54;96252.91;;;1.49;100.00
56668;BME280;42542;48.360;10.958;2022-12-20T16:36:56;96235.63;;;1.45;100.00
56668;BME280;42542;48.360;10.958;2022-12-20T16:39:57;96239.84;;;1.47;100.00
56668;BME280;42542;48.360;10.958;2022-12-20T16:42:59;96239.09;;;1.45;100.00
56668;BME280;42542;48.360;10.958;2022-12-20T16:46:01;96235.75;;;1.43;100.00
56668;BME280;42542;48.360;10.958;2022-12-20T16:49:02;96262.09;;;1.43;100.00
56668;BME280;42542;48.360;10.958;2022-12-20T16:52:04;96263.88;;;1.43;100.00
56668;BME280;42542;48.360;10.958;2022-12-20T16:55:34;96255.13;;;1.42;100.00
56668;BME280;42542;48.360;10.958;2022-12-20T16:58:40;96263.03;;;1.42;100.00
56668;BME280;42542;48.360;10.958;2022-12-20T17:02:02;96258.63;;;1.43;100.00
56668;BME280;42542;48.360;10.958;2022-12-20T17:05:04;96244.78;;;1.39;100.00
56668;BME280;42542;48.360;10.958;2022-12-20T17:08:06;96250.72;;;1.43;100.00
56668;BME280;42542;48.360;10.958;2022-12-20T17:11:29;96236.81;;;1.41;100.00
56668;BME280;42542;48.360;10.958;2022-12-20T17:14:32;96235.00;;;1.41;100.00
56668;BME280;42542;48.360;10.958;2022-12-20T17:17:33;96237.75;;;1.40;100.00
56668;BME280;42542;48.360;10.958;2022-12-20T17:20:35;96231.22;;;1.33;100.00
56668;BME280;42542;48.360;10.958;2022-12-20T17:23:37;96227.72;;;1.32;100.00
56668;BME280;42542;48.360;10.958;2022-12-20T17:27:14;96236.28;;;1.36;100.00